Terminal Aerodrome Forecast
Issued by NWS

Home | Current Version | Previous Version | Text Only | Print | Product List | Glossary On
Versions: 1 2 3 4 5 6 7 8 9 10 11 12 13 14 15
412
FTUS46 KSEW 270520
TAFHQM
TAF
KHQM 270520Z 2706/2806 27007KT 6SM HZ OVC009
     FM271200 00000KT 3SM BR OVC005
     FM271700 19005KT 5SM BR BKN015
     FM272000 24012KT P6SM SCT025=

USA.gov is the U.S. government's official web portal to all federal, state and local government web resources and services.